Time,TemperatureF,DewpointF,PressureIn,WindDirection,WindDirectionDegrees,WindSpeedMPH,WindSpeedGustMPH,Humidity,HourlyPrecipIn,Conditions,Clouds,dailyrainin,SoftwareType,DateUTC
2013-04-20 00:09:00,47.2,46.0,30.18,ESE,102,3.0,-999.0,94,-99.99,,,0.00,weatherlink.com 1.10,2013-04-20 07:09:00,
2013-04-20 00:24:00,47.2,46.0,30.18,NNE,31,0.0,-999.0,94,-99.99,,,0.00,weatherlink.com 1.10,2013-04-20 07:24:00,
2013-04-20 00:39:00,47.2,46.0,30.19,North,10,2.0,-999.0,94,-99.99,,,0.00,weatherlink.com 1.10,2013-04-20 07:39:00,
2013-04-20 00:54:00,47.1,45.0,30.19,NNE,26,0.0,-999.0,93,-99.99,,,0.00,weatherlink.com 1.10,2013-04-20 07:54:00,
2013-04-20 01:09:00,47.2,45.0,30.19,WNW,290,3.0,-999.0,93,-99.99,,,0.00,weatherlink.com 1.10,2013-04-20 08:09:00,
2013-04-20 01:24:00,47.1,45.0,30.19,SE,145,0.0,-999.0,93,-99.99,,,0.00,weatherlink.com 1.10,2013-04-20 08:24:00,
2013-04-20 01:39:00,47.1,45.0,30.19,South,176,2.0,-999.0,93,-99.99,,,0.00,weatherlink.com 1.10,2013-04-20 08:39:00,
2013-04-20 01:54:00,47.1,45.0,30.20,NNE,33,0.0,-999.0,93,-99.99,,,0.00,weatherlink.com 1.10,2013-04-20 08:54:00,
2013-04-20 02:09:00,47.1,45.0,30.19,NNE,32,2.0,-999.0,93,-99.99,,,0.00,weatherlink.com 1.10,2013-04-20 09:09:00,
2013-04-20 02:24:00,47.1,46.0,30.19,NNE,29,1.0,-999.0,94,-99.99,,,0.00,weatherlink.com 1.10,2013-04-20 09:24:00,
2013-04-20 02:39:00,47.0,45.0,30.19,NNE,17,2.0,-999.0,94,-99.99,,,0.00,weatherlink.com 1.10,2013-04-20 09:39:00,
2013-04-20 02:54:00,47.0,46.0,30.20,NNE,21,0.0,-999.0,95,-99.99,,,0.00,weatherlink.com 1.10,2013-04-20 09:54:00,
2013-04-20 03:09:00,46.9,46.0,30.20,NNW,342,0.0,-999.0,95,-99.99,,,0.00,weatherlink.com 1.10,2013-04-20 10:09:00,
2013-04-20 03:25:00,46.5,45.0,30.20,SW,224,1.0,-999.0,95,-99.99,,,0.00,weatherlink.com 1.10,2013-04-20 10:25:00,
2013-04-20 03:40:00,46.3,45.0,30.20,SSW,204,0.0,-999.0,95,-99.99,,,0.00,weatherlink.com 1.10,2013-04-20 10:40:00,
2013-04-20 03:55:00,46.1,45.0,30.21,NW,318,0.0,-999.0,95,-99.99,,,0.00,weatherlink.com 1.10,2013-04-20 10:55:00,
2013-04-20 04:09:00,46.1,45.0,30.21,NW,318,0.0,-999.0,95,-99.99,,,0.00,weatherlink.com 1.10,2013-04-20 11:09:00,
2013-04-20 04:24:00,46.1,45.0,30.21,NW,318,0.0,-999.0,95,-99.99,,,0.00,weatherlink.com 1.10,2013-04-20 11:24:00,
2013-04-20 04:39:00,45.9,45.0,30.21,NW,318,0.0,-999.0,95,-99.99,,,0.00,weatherlink.com 1.10,2013-04-20 11:39:00,
2013-04-20 04:54:00,45.8,45.0,30.21,NW,319,0.0,-999.0,95,-99.99,,,0.00,weatherlink.com 1.10,2013-04-20 11:54:00,
2013-04-20 05:10:00,45.6,44.0,30.22,NW,315,0.0,-999.0,95,-99.99,,,0.00,weatherlink.com 1.10,2013-04-20 12:10:00,
2013-04-20 05:25:00,45.7,44.0,30.22,NW,319,0.0,-999.0,95,-99.99,,,0.00,weatherlink.com 1.10,2013-04-20 12:25:00,
2013-04-20 05:40:00,45.6,44.0,30.22,NW,321,0.0,-999.0,95,-99.99,,,0.00,weatherlink.com 1.10,2013-04-20 12:40:00,
2013-04-20 05:55:00,45.4,44.0,30.22,NW,323,0.0,-999.0,95,-99.99,,,0.00,weatherlink.com 1.10,2013-04-20 12:55:00,
2013-04-20 06:10:00,45.4,44.0,30.23,NW,321,0.0,-999.0,95,-99.99,,,0.00,weatherlink.com 1.10,2013-04-20 13:10:00,
2013-04-20 06:25:00,45.5,45.0,30.23,NNW,327,0.0,-999.0,96,-99.99,,,0.01,weatherlink.com 1.10,2013-04-20 13:25:00,
2013-04-20 06:40:00,45.6,45.0,30.23,NNW,327,0.0,-999.0,96,-99.99,,,0.01,weatherlink.com 1.10,2013-04-20 13:40:00,
2013-04-20 06:55:00,45.3,44.0,30.23,NNW,329,3.0,-999.0,95,-99.99,,,0.01,weatherlink.com 1.10,2013-04-20 13:55:00,
2013-04-20 07:10:00,45.3,44.0,30.23,North,355,0.0,-999.0,95,-99.99,,,0.01,weatherlink.com 1.10,2013-04-20 14:10:00,
2013-04-20 07:25:00,45.3,44.0,30.23,North,360,5.0,-999.0,95,-99.99,,,0.01,weatherlink.com 1.10,2013-04-20 14:25:00,
2013-04-20 07:40:00,45.5,44.0,30.23,NE,34,0.0,-999.0,95,-99.99,,,0.01,weatherlink.com 1.10,2013-04-20 14:40:00,
2013-04-20 07:55:00,45.7,44.0,30.23,SE,135,5.0,-999.0,94,-99.99,,,0.01,weatherlink.com 1.10,2013-04-20 14:55:00,
2013-04-20 08:10:00,46.1,44.0,30.23,SSW,202,0.0,-999.0,93,-99.99,,,0.01,weatherlink.com 1.10,2013-04-20 15:10:00,
2013-04-20 08:25:00,46.5,45.0,30.23,West,275,0.0,-999.0,93,-99.99,,,0.01,weatherlink.com 1.10,2013-04-20 15:25:00,
2013-04-20 08:40:00,46.9,45.0,30.24,South,187,2.0,-999.0,92,-99.99,,,0.01,weatherlink.com 1.10,2013-04-20 15:40:00,
2013-04-20 08:55:00,47.3,45.0,30.23,SSE,163,0.0,-999.0,91,-99.99,,,0.01,weatherlink.com 1.10,2013-04-20 15:55:00,
2013-04-20 09:10:00,47.9,46.0,30.23,SSW,202,4.0,-999.0,91,-99.99,,,0.01,weatherlink.com 1.10,2013-04-20 16:10:00,
2013-04-20 09:25:00,48.7,46.0,30.23,NW,325,0.0,-999.0,91,-99.99,,,0.01,weatherlink.com 1.10,2013-04-20 16:25:00,
2013-04-20 09:40:00,49.2,46.0,30.23,East,92,0.0,-999.0,89,-99.99,,,0.01,weatherlink.com 1.10,2013-04-20 16:40:00,
2013-04-20 09:55:00,49.6,46.0,30.23,West,267,7.0,-999.0,88,-99.99,,,0.01,weatherlink.com 1.10,2013-04-20 16:55:00,
2013-04-20 10:10:00,49.5,46.0,30.24,WNW,299,2.0,-999.0,88,-99.99,,,0.01,weatherlink.com 1.10,2013-04-20 17:10:00,
2013-04-20 10:25:00,49.8,46.0,30.24,NW,325,0.0,-999.0,88,-99.99,,,0.01,weatherlink.com 1.10,2013-04-20 17:25:00,
2013-04-20 10:40:00,50.4,46.0,30.25,NE,41,3.0,-999.0,86,-99.99,,,0.01,weatherlink.com 1.10,2013-04-20 17:40:00,
2013-04-20 10:55:00,50.3,46.0,30.25,SSW,196,0.0,-999.0,84,-99.99,,,0.01,weatherlink.com 1.10,2013-04-20 17:55:00,
2013-04-20 11:10:00,50.8,46.0,30.26,SE,138,0.0,-999.0,82,-99.99,,,0.01,weatherlink.com 1.10,2013-04-20 18:10:00,
2013-04-20 11:25:00,50.2,46.0,30.26,SSW,204,2.0,-999.0,84,-99.99,,,0.01,weatherlink.com 1.10,2013-04-20 18:25:00,
2013-04-20 11:40:00,50.0,46.0,30.27,SSW,208,4.0,-999.0,85,-99.99,,,0.01,weatherlink.com 1.10,2013-04-20 18:40:00,
2013-04-20 11:55:00,49.7,46.0,30.27,NE,50,0.0,-999.0,87,-99.99,,,0.01,weatherlink.com 1.10,2013-04-20 18:55:00,
2013-04-20 12:10:00,49.6,47.0,30.27,South,182,0.0,-999.0,89,-99.99,,,0.01,weatherlink.com 1.10,2013-04-20 19:10:00,
2013-04-20 12:25:00,50.8,47.0,30.26,SSW,212,5.0,-999.0,88,-99.99,,,0.01,weatherlink.com 1.10,2013-04-20 19:25:00,
2013-04-20 12:40:00,50.9,46.0,30.26,South,172,5.0,-999.0,83,-99.99,,,0.01,weatherlink.com 1.10,2013-04-20 19:40:00,
2013-04-20 12:55:00,50.5,47.0,30.25,SSW,194,1.0,-999.0,87,-99.99,,,0.01,weatherlink.com 1.10,2013-04-20 19:55:00,
2013-04-20 13:10:00,51.4,46.0,30.25,WSW,254,2.0,-999.0,83,-99.99,,,0.01,weatherlink.com 1.10,2013-04-20 20:10:00,
2013-04-20 13:25:00,52.0,46.0,30.25,West,261,2.0,-999.0,80,-99.99,,,0.01,weatherlink.com 1.10,2013-04-20 20:25:00,
2013-04-20 13:40:00,52.3,46.0,30.25,East,86,0.0,-999.0,78,-99.99,,,0.01,weatherlink.com 1.10,2013-04-20 20:40:00,
2013-04-20 13:55:00,52.4,46.0,30.25,West,279,0.0,-999.0,79,-99.99,,,0.01,weatherlink.com 1.10,2013-04-20 20:55:00,
2013-04-20 14:10:00,51.6,47.0,30.26,SW,215,0.0,-999.0,85,-99.99,,,0.01,weatherlink.com 1.10,2013-04-20 21:10:00,
2013-04-20 14:25:00,51.2,47.0,30.25,WNW,286,0.0,-999.0,85,-99.99,,,0.01,weatherlink.com 1.10,2013-04-20 21:25:00,
2013-04-20 14:40:00,51.5,47.0,30.26,West,269,2.0,-999.0,83,-99.99,,,0.01,weatherlink.com 1.10,2013-04-20 21:40:00,
2013-04-20 14:55:00,50.8,47.0,30.26,WSW,246,0.0,-999.0,87,-99.99,,,0.01,weatherlink.com 1.10,2013-04-20 21:55:00,
2013-04-20 15:10:00,51.0,48.0,30.25,West,267,0.0,-999.0,90,-99.99,,,0.01,weatherlink.com 1.10,2013-04-20 22:10:00,
2013-04-20 15:25:00,51.0,47.0,30.26,WSW,244,7.0,-999.0,87,-99.99,,,0.01,weatherlink.com 1.10,2013-04-20 22:25:00,
2013-04-20 15:40:00,50.8,47.0,30.25,WNW,303,4.0,-999.0,86,-99.99,,,0.01,weatherlink.com 1.10,2013-04-20 22:40:00,
2013-04-20 15:55:00,50.7,47.0,30.25,North,5,0.0,-999.0,87,-99.99,,,0.01,weatherlink.com 1.10,2013-04-20 22:55:00,
2013-04-20 16:10:00,50.7,47.0,30.25,WSW,254,6.0,-999.0,87,-99.99,,,0.01,weatherlink.com 1.10,2013-04-20 23:10:00,
2013-04-20 16:25:00,50.5,47.0,30.25,NW,304,0.0,-999.0,87,-99.99,,,0.01,weatherlink.com 1.10,2013-04-20 23:25:00,
2013-04-20 16:40:00,50.9,47.0,30.25,NNW,336,0.0,-999.0,85,-99.99,,,0.01,weatherlink.com 1.10,2013-04-20 23:40:00,
2013-04-20 16:55:00,50.8,47.0,30.24,WSW,243,11.0,-999.0,85,-99.99,,,0.01,weatherlink.com 1.10,2013-04-20 23:55:00,
2013-04-20 17:10:00,50.6,46.0,30.24,West,281,2.0,-999.0,84,-99.99,,,0.01,weatherlink.com 1.10,2013-04-21 00:10:00,
2013-04-20 17:25:00,50.3,46.0,30.24,West,269,4.0,-999.0,84,-99.99,,,0.01,weatherlink.com 1.10,2013-04-21 00:25:00,
2013-04-20 17:40:00,50.0,46.0,30.24,ENE,78,0.0,-999.0,85,-99.99,,,0.01,weatherlink.com 1.10,2013-04-21 00:40:00,
2013-04-20 17:55:00,49.5,46.0,30.24,NW,317,0.0,-999.0,86,-99.99,,,0.01,weatherlink.com 1.10,2013-04-21 00:55:00,
2013-04-20 18:10:00,49.5,45.0,30.24,WSW,251,1.0,-999.0,85,-99.99,,,0.01,weatherlink.com 1.10,2013-04-21 01:10:00,
2013-04-20 18:25:00,49.3,45.0,30.24,ESE,102,1.0,-999.0,86,-99.99,,,0.01,weatherlink.com 1.10,2013-04-21 01:25:00,
2013-04-20 18:40:00,48.7,45.0,30.24,NNW,347,0.0,-999.0,87,-99.99,,,0.01,weatherlink.com 1.10,2013-04-21 01:40:00,
2013-04-20 18:55:00,48.5,45.0,30.24,NNE,15,0.0,-999.0,88,-99.99,,,0.01,weatherlink.com 1.10,2013-04-21 01:55:00,
2013-04-20 19:10:00,48.3,45.0,30.24,North,5,0.0,-999.0,89,-99.99,,,0.01,weatherlink.com 1.10,2013-04-21 02:10:00,
2013-04-20 19:25:00,47.9,45.0,30.24,NNE,25,1.0,-999.0,90,-99.99,,,0.01,weatherlink.com 1.10,2013-04-21 02:25:00,
2013-04-20 19:40:00,47.6,45.0,30.23,North,360,1.0,-999.0,91,-99.99,,,0.01,weatherlink.com 1.10,2013-04-21 02:40:00,
2013-04-20 19:55:00,47.4,45.0,30.23,SW,225,0.0,-999.0,91,-99.99,,,0.01,weatherlink.com 1.10,2013-04-21 02:55:00,
2013-04-20 20:10:00,46.9,45.0,30.24,SSW,211,1.0,-999.0,91,-99.99,,,0.01,weatherlink.com 1.10,2013-04-21 03:10:00,
2013-04-20 20:25:00,46.5,44.0,30.24,SSW,211,0.0,-999.0,92,-99.99,,,0.01,weatherlink.com 1.10,2013-04-21 03:25:00,
2013-04-20 20:40:00,46.0,44.0,30.24,SSW,209,3.0,-999.0,92,-99.99,,,0.01,weatherlink.com 1.10,2013-04-21 03:40:00,
2013-04-20 20:55:00,45.8,44.0,30.24,WSW,240,4.0,-999.0,92,-99.99,,,0.01,weatherlink.com 1.10,2013-04-21 03:55:00,
2013-04-20 21:10:00,45.7,43.0,30.25,NNW,343,0.0,-999.0,91,-99.99,,,0.01,weatherlink.com 1.10,2013-04-21 04:10:00,
2013-04-20 21:25:00,45.5,43.0,30.25,NE,49,0.0,-999.0,91,-99.99,,,0.01,weatherlink.com 1.10,2013-04-21 04:25:00,
2013-04-20 21:40:00,45.2,43.0,30.25,ENE,69,0.0,-999.0,91,-99.99,,,0.01,weatherlink.com 1.10,2013-04-21 04:40:00,
2013-04-20 21:55:00,45.1,43.0,30.25,ENE,68,0.0,-999.0,91,-99.99,,,0.01,weatherlink.com 1.10,2013-04-21 04:55:00,
2013-04-20 22:10:00,45.1,43.0,30.26,ENE,67,2.0,-999.0,91,-99.99,,,0.01,weatherlink.com 1.10,2013-04-21 05:10:00,
2013-04-20 22:25:00,45.0,43.0,30.26,North,355,0.0,-999.0,92,-99.99,,,0.01,weatherlink.com 1.10,2013-04-21 05:25:00,
2013-04-20 22:40:00,45.0,43.0,30.25,West,281,0.0,-999.0,93,-99.99,,,0.01,weatherlink.com 1.10,2013-04-21 05:40:00,
2013-04-20 22:55:00,45.0,43.0,30.25,NNW,341,0.0,-999.0,93,-99.99,,,0.01,weatherlink.com 1.10,2013-04-21 05:55:00,
2013-04-20 23:10:00,45.0,43.0,30.25,NNW,341,0.0,-999.0,94,-99.99,,,0.01,weatherlink.com 1.10,2013-04-21 06:10:00,
2013-04-20 23:25:00,45.0,43.0,30.25,SSW,212,5.0,-999.0,94,-99.99,,,0.01,weatherlink.com 1.10,2013-04-21 06:25:00,
2013-04-20 23:40:00,45.0,43.0,30.25,NNE,12,0.0,-999.0,94,-99.99,,,0.01,weatherlink.com 1.10,2013-04-21 06:40:00,
2013-04-20 23:55:00,45.0,43.0,30.25,North,5,0.0,-999.0,93,-99.99,,,0.01,weatherlink.com 1.10,2013-04-21 06:55:00,